Time;durP1;ratioP1;P1;durP2;ratioP2;P2;SDS_P1;SDS_P2;PMS_P1;PMS_P2;Temp;Humidity;BMP_temperature;BMP_pressure;BME280_temperature;BME280_humidity;BME280_pressure;Samples;Min_cycle;Max_cycle;Signal;HPM_P1;HPM_P2
2023/09/16 00:02:16;;;;;;;7.18;6.47;;;;;;;15.49;100.00;101414.13;5110762;28;20255;-36
2023/09/16 00:04:41;;;;;;;;;;;;;;;15.65;100.00;101409.75;5110692;28;20016;-36
2023/09/16 00:07:07;;;;;;;7.05;5.75;;;;;;;15.42;100.00;101395.25;5111075;28;19915;-36
2023/09/16 00:09:33;;;;;;;;;;;;;;;15.62;100.00;101411.06;5102319;28;20050;-36
2023/09/16 00:11:59;;;;;;;10.15;6.07;;;;;;;15.52;100.00;101400.00;5096295;28;19999;-36
2023/09/16 00:14:24;;;;;;;6.75;5.47;;;;;;;15.56;100.00;101401.13;5096856;28;20051;-36
2023/09/16 00:16:51;;;;;;;;;;;;;;;15.65;100.00;101402.41;5097717;28;20016;-36
2023/09/16 00:19:17;;;;;;;6.97;5.75;;;;;;;15.60;100.00;101406.91;5096431;28;20374;-36
2023/09/16 00:21:43;;;;;;;;;;;;;;;15.68;100.00;101410.09;5097197;28;20052;-36
2023/09/16 00:24:10;;;;;;;7.50;5.68;;;;;;;15.60;100.00;101407.75;5096298;28;19908;-37
2023/09/16 00:26:35;;;;;;;8.07;6.63;;;;;;;15.40;100.00;101407.44;5096032;28;20049;-37
2023/09/16 00:29:00;;;;;;;8.60;5.75;;;;;;;15.49;100.00;101405.97;5096233;28;20032;-37
2023/09/16 00:31:27;;;;;;;;;;;;;;;15.62;100.00;101412.97;5096962;28;20110;-35
2023/09/16 00:33:52;;;;;;;6.95;6.25;;;;;;;15.50;100.00;101412.22;5096392;28;19935;-36
2023/09/16 00:36:18;;;;;;;8.57;5.82;;;;;;;15.52;100.00;101407.34;5096991;28;20112;-36
2023/09/16 00:38:43;;;;;;;;;;;;;;;15.59;100.00;101414.28;5096801;28;20074;-36
2023/09/16 00:41:08;;;;;;;7.07;5.25;;;;;;;15.50;100.00;101417.69;5096111;28;19919;-36
2023/09/16 00:43:34;;;;;;;;;;;;;;;15.57;100.00;101413.72;5096798;28;20024;-36
2023/09/16 00:45:59;;;;;;;7.75;6.85;;;;;;;15.37;100.00;101405.22;5095617;28;20260;-36
2023/09/16 00:48:25;;;;;;;;;;;;;;;15.53;100.00;101412.56;5096969;28;20099;-36
2023/09/16 00:50:50;;;;;;;6.97;5.60;;;;;;;15.44;100.00;101406.72;5095845;28;19908;-36
2023/09/16 00:53:16;;;;;;;;;;;;;;;15.48;100.00;101409.75;5096245;28;20027;-36
2023/09/16 00:55:45;;;;;;;8.07;6.50;;;;;;;15.27;100.00;101405.88;5096542;28;20275;-36
2023/09/16 00:58:11;;;;;;;8.05;6.65;;;;;;;15.26;100.00;101406.13;5095707;28;20127;-36
2023/09/16 01:00:37;;;;;;;8.05;6.35;;;;;;;15.17;100.00;101413.91;5095900;28;20106;-36
2023/09/16 01:03:04;;;;;;;;;;;;;;;15.33;100.00;101398.63;5096058;28;20099;-36
2023/09/16 01:05:30;;;;;;;;;;;;;;;15.34;100.00;101390.19;5095637;28;19930;-36
2023/09/16 01:07:55;;;;;;;6.93;6.07;;;;;;;15.21;100.00;101387.81;5095773;28;19912;-36
2023/09/16 01:10:20;;;;;;;;;;;;;;;15.32;100.00;101383.34;5095894;28;20035;-36
2023/09/16 01:12:48;;;;;;;9.93;6.47;;;;;;;15.12;100.00;101390.13;5095615;28;19910;-36
2023/09/16 01:15:15;;;;;;;8.18;6.30;;;;;;;15.19;100.00;101395.41;5095298;28;20418;-36
2023/09/16 01:18:19;;;;;;;6.63;5.95;;;;;;;15.22;100.00;101388.63;5095552;28;20027;-36
2023/09/16 01:20:47;;;;;;;7.53;6.57;;;;;;;15.12;100.00;101383.84;5093901;28;20031;-36
2023/09/16 01:23:18;;;;;;;7.80;6.10;;;;;;;15.04;100.00;101371.47;5095251;28;20111;-35
2023/09/16 01:25:43;;;;;;;10.95;7.32;;;;;;;15.04;100.00;101381.56;5095178;28;20020;-36
2023/09/16 01:28:08;;;;;;;;;;;;;;;15.17;100.00;101376.56;5095912;28;20141;-36
2023/09/16 01:30:39;;;;;;;8.37;5.80;;;;;;;15.01;100.00;101387.50;5095073;28;19957;-36
2023/09/16 01:33:08;;;;;;;8.55;6.38;;;;;;;15.01;100.00;101382.03;5095099;28;20290;-36
2023/09/16 01:35:37;;;;;;;9.02;6.30;;;;;;;15.00;100.00;101386.66;5094919;28;20028;-36
2023/09/16 01:38:05;;;;;;;9.82;6.72;;;;;;;14.99;100.00;101386.91;5095680;28;20024;-36
2023/09/16 01:40:32;;;;;;;6.88;6.22;;;;;;;14.88;100.00;101388.63;5094824;28;20031;-36
2023/09/16 01:42:58;;;;;;;9.52;7.03;;;;;;;14.80;100.00;101383.59;5094898;28;20016;-36
2023/09/16 01:45:24;;;;;;;8.70;7.15;;;;;;;14.68;100.00;101375.47;5095055;28;20017;-36
2023/09/16 01:47:49;;;;;;;6.57;5.85;;;;;;;14.71;100.00;101374.19;5095324;28;20080;-36
2023/09/16 01:50:15;;;;;;;;;;;;;;;14.84;100.00;101391.03;5095104;28;20019;-36
2023/09/16 01:52:40;;;;;;;7.03;6.20;;;;;;;14.67;100.00;101385.56;5094866;28;20354;-36
2023/09/16 01:55:06;;;;;;;9.60;7.50;;;;;;;14.61;100.00;101383.00;5095430;28;20586;-36
2023/09/16 01:57:31;;;;;;;;;;;;;;;14.76;100.00;101385.16;5094659;28;20178;-36
2023/09/16 01:59:56;;;;;;;6.82;6.13;;;;;;;14.67;100.00;101376.56;5095090;28;19912;-36
2023/09/16 02:02:22;;;;;;;6.70;6.03;;;;;;;14.56;100.00;101372.84;5095178;28;20107;-36
2023/09/16 02:04:47;;;;;;;;;;;;;;;14.65;100.00;101376.00;5094874;28;20103;-36
2023/09/16 02:07:12;;;;;;;7.85;6.38;;;;;;;14.48;100.00;101369.69;5094192;28;19953;-36
2023/09/16 02:09:38;;;;;;;;;;;;;;;14.60;100.00;101378.63;5094772;28;20046;-36
2023/09/16 02:12:03;;;;;;;6.60;5.83;;;;;;;14.44;100.00;101377.47;5094387;28;19912;-36
2023/09/16 02:14:29;;;;;;;9.45;7.20;;;;;;;14.43;100.00;101365.75;5094272;28;20287;-36
2023/09/16 02:16:54;;;;;;;7.28;6.57;;;;;;;14.52;100.00;101376.28;5094228;28;20024;-36
2023/09/16 02:19:19;;;;;;;;;;;;;;;14.62;100.00;101371.84;5094630;28;20026;-36
2023/09/16 02:21:45;;;;;;;7.03;5.97;;;;;;;14.48;100.00;101372.41;5094410;28;19911;-36
2023/09/16 02:24:10;;;;;;;7.80;7.00;;;;;;;14.46;100.00;101375.34;5094061;28;20330;-36
2023/09/16 02:26:35;;;;;;;;;;;;;;;14.59;100.00;101374.22;5094868;28;20024;-36
2023/09/16 02:29:00;;;;;;;6.10;5.50;;;;;;;14.54;100.00;101375.00;5093749;28;20407;-36
2023/09/16 02:31:26;;;;;;;7.47;6.60;;;;;;;14.47;100.00;101377.00;5093931;28;20250;-36
2023/09/16 02:33:54;;;;;;;;;;;;;;;14.56;100.00;101372.84;5094821;28;20028;-36
2023/09/16 02:36:20;;;;;;;8.07;7.28;;;;;;;14.44;100.00;101363.88;5093901;28;19904;-36
2023/09/16 02:38:45;;;;;;;;;;;;;;;14.51;100.00;101370.03;5094536;28;20103;-36
2023/09/16 02:41:15;;;;;;;8.00;7.20;;;;;;;14.39;100.00;101366.50;5093625;28;19915;-36
2023/09/16 02:43:40;;;;;;;10.63;7.78;;;;;;;14.33;100.00;101371.00;5094099;28;20292;-36
2023/09/16 02:46:05;;;;;;;10.25;6.45;;;;;;;14.38;100.00;101364.84;5094355;28;20039;-36
2023/09/16 02:48:31;;;;;;;8.45;6.90;;;;;;;14.39;100.00;101364.59;5093853;28;20124;-36
2023/09/16 02:50:56;;;;;;;7.75;6.28;;;;;;;14.37;100.00;101360.47;5093820;28;20020;-36
2023/09/16 02:53:21;;;;;;;;;;;;;;;14.42;100.00;101366.84;5094191;28;20020;-36
2023/09/16 02:55:46;;;;;;;6.90;6.20;;;;;;;14.33;100.00;101359.31;5093684;28;19930;-36
2023/09/16 02:58:12;;;;;;;11.18;7.85;;;;;;;14.18;100.00;101363.38;5093833;28;20300;-36
2023/09/16 03:00:37;;;;;;;;;;;;;;;14.29;100.00;101364.41;5094631;28;20085;-36
2023/09/16 03:03:03;;;;;;;8.05;7.25;;;;;;;14.00;100.00;101355.41;5093904;28;20271;-36
2023/09/16 03:05:29;;;;;;;9.32;7.72;;;;;;;14.06;100.00;101370.78;5093648;28;20441;-36
2023/09/16 03:07:55;;;;;;;8.05;7.25;;;;;;;13.99;100.00;101359.19;5094427;28;20467;-36
2023/09/16 03:10:20;;;;;;;;;;;;;;;14.16;100.00;101364.72;5093993;28;20020;-36
2023/09/16 03:12:45;;;;;;;7.83;7.07;;;;;;;14.05;100.00;101366.38;5094182;28;19994;-36
2023/09/16 03:15:13;;;;;;;7.40;6.60;;;;;;;14.14;100.00;101358.66;5093273;28;20270;-36
2023/09/16 03:17:39;;;;;;;8.15;7.03;;;;;;;14.08;100.00;101349.59;5093824;28;20032;-36
2023/09/16 03:20:05;;;;;;;7.90;7.10;;;;;;;14.08;100.00;101351.47;5093216;28;20038;-36
2023/09/16 03:22:31;;;;;;;11.40;8.75;;;;;;;14.00;100.00;101355.41;5093742;28;20023;-36
2023/09/16 03:24:56;;;;;;;;;;;;;;;14.13;100.00;101355.13;5094414;28;20432;-36
2023/09/16 03:27:21;;;;;;;8.23;7.40;;;;;;;14.07;100.00;101349.84;5093700;28;19911;-36
2023/09/16 03:29:47;;;;;;;;;;;;;;;14.17;100.00;101355.47;5094387;28;20012;-36
2023/09/16 03:32:12;;;;;;;6.93;6.23;;;;;;;14.16;100.00;101349.22;5093476;28;20438;-36
2023/09/16 03:34:37;;;;;;;7.87;7.07;;;;;;;14.09;100.00;101348.50;5075578;28;20297;-36
2023/09/16 03:37:03;;;;;;;7.93;7.13;;;;;;;14.08;100.00;101341.44;5093287;28;20283;-36
2023/09/16 03:39:28;;;;;;;;;;;;;;;14.21;100.00;101345.78;5094298;28;20066;-36
2023/09/16 03:41:54;;;;;;;7.10;6.40;;;;;;;14.12;100.00;101342.59;5093396;28;20331;-36
2023/09/16 03:44:19;;;;;;;;;;;;;;;14.19;100.00;101342.44;5094940;28;20073;-36
2023/09/16 03:46:45;;;;;;;8.40;7.33;;;;;;;14.01;100.00;101343.47;5097382;28;19908;-36
2023/09/16 03:49:10;;;;;;;8.98;8.07;;;;;;;14.04;100.00;101342.97;5097017;28;20334;-36
2023/09/16 03:51:37;;;;;;;9.02;8.15;;;;;;;13.99;100.00;101344.78;5097333;28;20028;-36
2023/09/16 03:54:04;;;;;;;8.77;7.93;;;;;;;13.97;100.00;101338.75;5096983;28;20024;-36
2023/09/16 03:56:30;;;;;;;7.82;7.07;;;;;;;14.03;100.00;101338.63;5097209;28;20440;-36
2023/09/16 03:58:55;;;;;;;;;;;;;;;14.07;100.00;101339.78;5097884;28;20051;-36
2023/09/16 04:01:20;;;;;;;9.35;8.05;;;;;;;13.97;100.00;101344.19;5097403;28;20255;-36
2023/09/16 04:03:46;;;;;;;;;;;;;;;14.08;100.00;101337.88;5098133;28;20142;-36
2023/09/16 04:06:11;;;;;;;9.60;8.60;;;;;;;13.91;100.00;101329.69;5096753;28;19908;-36
2023/09/16 04:08:36;;;;;;;13.05;9.15;;;;;;;13.87;100.00;101333.94;5096769;28;20738;-36
2023/09/16 04:11:02;;;;;;;8.90;7.97;;;;;;;13.92;100.00;101323.19;5096692;28;20052;-36
2023/09/16 04:13:27;;;;;;;;;;;;;;;14.03;100.00;101327.72;5097619;28;20027;-36
2023/09/16 04:15:54;;;;;;;8.70;7.80;;;;;;;13.90;100.00;101334.28;5097072;28;19908;-36
2023/09/16 04:18:20;;;;;;;8.93;8.02;;;;;;;13.88;100.00;101317.38;5097243;28;20032;-36
2023/09/16 04:20:47;;;;;;;;;;;;;;;14.06;100.00;101342.75;5096598;28;20434;-36
2023/09/16 04:23:12;;;;;;;10.30;7.30;;;;;;;14.06;100.00;101343.56;5096711;28;19904;-36
2023/09/16 04:25:38;;;;;;;8.20;7.22;;;;;;;14.11;100.00;101346.41;5096434;28;20467;-36
2023/09/16 04:28:03;;;;;;;8.27;7.47;;;;;;;14.12;100.00;101341.78;5096363;28;20028;-36
2023/09/16 04:30:29;;;;;;;7.80;7.00;;;;;;;14.13;100.00;101329.81;5096492;28;20043;-36
2023/09/16 04:32:54;;;;;;;;;;;;;;;14.21;100.00;101337.59;5096904;28;20333;-36
2023/09/16 04:35:20;;;;;;;8.10;6.95;;;;;;;14.21;100.00;101334.06;5096133;28;19911;-36
2023/09/16 04:37:45;;;;;;;;;;;;;;;14.22;100.00;101331.09;5096524;28;20023;-36
2023/09/16 04:40:11;;;;;;;8.75;7.70;;;;;;;14.20;100.00;101326.94;5096014;28;19908;-36
2023/09/16 04:42:37;;;;;;;8.95;7.82;;;;;;;14.20;100.00;101321.50;5096377;28;20016;-36
2023/09/16 04:45:04;;;;;;;8.45;7.57;;;;;;;14.17;100.00;101322.84;5095966;28;20012;-36
2023/09/16 04:47:29;;;;;;;8.40;7.60;;;;;;;14.16;100.00;101322.03;5096228;28;20035;-36
2023/09/16 04:49:55;;;;;;;9.73;7.40;;;;;;;14.15;100.00;101330.41;5096482;28;20368;-36
2023/09/16 04:52:21;;;;;;;10.52;9.10;;;;;;;13.96;100.00;101327.06;5096399;28;20246;-36
2023/09/16 04:54:46;;;;;;;8.93;8.02;;;;;;;13.87;100.00;101312.19;5095344;28;20368;-36
2023/09/16 04:57:13;;;;;;;10.85;9.13;;;;;;;13.93;100.00;101332.16;5095927;28;20027;-36
2023/09/16 04:59:39;;;;;;;9.88;8.88;;;;;;;13.86;100.00;101332.31;5093703;28;20093;-37
2023/09/16 05:02:04;;;;;;;;;;;;;;;13.98;100.00;101335.78;5096679;28;20039;-36
2023/09/16 05:04:30;;;;;;;8.73;7.83;;;;;;;13.95;100.00;101336.25;5096182;28;19904;-36
2023/09/16 05:06:55;;;;;;;8.55;7.68;;;;;;;13.94;100.00;101323.75;5096118;28;20335;-36
2023/09/16 05:09:22;;;;;;;;;;;;;;;13.98;100.00;101335.78;5095685;28;20020;-36
2023/09/16 05:11:47;;;;;;;9.68;8.02;;;;;;;13.90;100.00;101337.00;5096367;28;19904;-36
2023/09/16 05:14:12;;;;;;;;;;;;;;;13.98;100.00;101332.25;5095474;28;20080;-36
2023/09/16 05:16:38;;;;;;;8.37;7.57;;;;;;;13.94;100.00;101323.75;5095372;28;19984;-36
2023/09/16 05:19:03;;;;;;;8.77;7.87;;;;;;;13.91;100.00;101325.06;5094932;28;20365;-36
2023/09/16 05:21:29;;;;;;;9.38;8.32;;;;;;;13.95;100.00;101324.56;5095846;28;20258;-36
2023/09/16 05:23:54;;;;;;;8.80;7.90;;;;;;;13.87;100.00;101328.50;5095322;28;20020;-36
2023/09/16 05:26:19;;;;;;;9.15;8.25;;;;;;;13.86;100.00;101335.84;5095781;28;20258;-36
2023/09/16 05:28:44;;;;;;;;;;;;;;;13.96;100.00;101335.22;5095950;28;20356;-37
2023/09/16 05:31:10;;;;;;;10.63;9.43;;;;;;;13.77;100.00;101337.28;5095098;28;19962;-36
2023/09/16 05:33:36;;;;;;;9.90;8.48;;;;;;;13.82;100.00;101337.38;5094823;28;20242;-36
2023/09/16 05:36:01;;;;;;;;;;;;;;;13.91;100.00;101333.22;5095484;28;20367;-36
2023/09/16 05:38:26;;;;;;;8.40;7.53;;;;;;;13.97;100.00;101328.72;5094904;28;19915;-36
2023/09/16 05:40:51;;;;;;;9.03;7.47;;;;;;;14.01;100.00;101329.88;5095182;28;20277;-37
2023/09/16 05:43:17;;;;;;;8.70;7.80;;;;;;;14.04;100.00;101328.56;5095711;28;20254;-36
2023/09/16 05:45:43;;;;;;;;;;;;;;;14.11;100.00;101324.63;5095279;28;20093;-36
2023/09/16 05:48:08;;;;;;;9.75;7.95;;;;;;;14.14;100.00;101326.03;5095064;28;19994;-36
2023/09/16 05:50:34;;;;;;;;;;;;;;;14.22;100.00;101328.38;5095123;28;20432;-36
2023/09/16 05:52:59;;;;;;;10.50;8.13;;;;;;;14.28;100.00;101329.28;5094729;28;19951;-37
2023/09/16 05:55:24;;;;;;;10.07;9.10;;;;;;;14.24;100.00;101333.56;5094836;28;20324;-37
2023/09/16 05:57:50;;;;;;;;;;;;;;;14.37;100.00;101338.72;5094747;28;20055;-36
2023/09/16 06:00:15;;;;;;;13.73;10.65;;;;;;;14.33;100.00;101337.53;5094496;28;19999;-37
2023/09/16 06:02:41;;;;;;;15.38;10.35;;;;;;;14.36;100.00;101335.16;5094527;28;20400;-34
2023/09/16 06:05:07;;;;;;;;;;;;;;;14.50;100.00;101335.72;5095445;28;20440;-36
2023/09/16 06:07:32;;;;;;;13.60;9.60;;;;;;;14.53;100.00;101335.22;5094454;28;19958;-36
2023/09/16 06:09:57;;;;;;;;;;;;;;;14.62;100.00;101346.53;5094446;28;20445;-37
2023/09/16 06:12:22;;;;;;;10.73;9.07;;;;;;;14.65;100.00;101340.63;5094093;28;19961;-37
2023/09/16 06:14:48;;;;;;;13.55;11.23;;;;;;;14.47;100.00;101319.84;5094272;28;20353;-35
2023/09/16 06:17:13;;;;;;;10.60;9.48;;;;;;;14.74;100.00;101347.31;5094206;28;20035;-35
2023/09/16 06:19:39;;;;;;;;;;;;;;;14.85;100.00;101348.28;5094398;28;20383;-35
2023/09/16 06:22:04;;;;;;;10.05;9.05;;;;;;;14.82;100.00;101352.31;5094412;28;19911;-36
2023/09/16 06:24:30;;;;;;;12.35;10.82;;;;;;;14.86;100.00;101339.03;5094408;28;20024;-36
2023/09/16 06:26:55;;;;;;;10.75;9.63;;;;;;;15.05;100.00;101345.91;5094438;28;20368;-36
2023/09/16 06:29:20;;;;;;;;;;;;;;;15.15;100.00;101346.03;5094979;28;20134;-36
2023/09/16 06:31:46;;;;;;;12.35;11.15;;;;;;;15.18;100.00;101342.84;5094580;28;20332;-36
2023/09/16 06:34:11;;;;;;;;;;;;;;;15.27;100.00;101348.66;5094361;28;20047;-36
2023/09/16 06:36:40;;;;;;;11.82;10.57;;;;;;;15.31;100.00;101338.09;5093948;28;19963;-36
2023/09/16 06:39:07;;;;;;;13.98;11.57;;;;;;;15.34;100.00;101345.78;5093677;28;20438;-36
2023/09/16 06:41:33;;;;;;;14.57;11.63;;;;;;;15.42;100.00;101348.91;5094152;28;20026;-36
2023/09/16 06:43:58;;;;;;;13.70;12.27;;;;;;;15.43;100.00;101341.56;5093610;28;20391;-36
2023/09/16 06:46:24;;;;;;;;;;;;;;;15.61;100.00;101348.59;5093966;28;20491;-36
2023/09/16 06:48:49;;;;;;;12.70;11.47;;;;;;;15.62;100.00;101350.28;5093775;28;19911;-36
2023/09/16 06:51:14;;;;;;;12.95;11.30;;;;;;;15.73;100.00;101362.97;5094362;28;20266;-36
2023/09/16 06:53:40;;;;;;;;;;;;;;;15.79;100.00;101361.97;5093827;28;20417;-36
2023/09/16 06:56:05;;;;;;;14.77;12.30;;;;;;;15.76;100.00;101348.00;5093685;28;19904;-36
2023/09/16 06:58:30;;;;;;;12.05;10.77;;;;;;;15.96;100.00;101357.28;5093249;28;20294;-36
2023/09/16 07:00:55;;;;;;;;;;;;;;;16.12;100.00;101368.38;5076030;28;20036;-36
2023/09/16 07:03:21;;;;;;;12.37;11.07;;;;;;;16.17;100.00;101352.88;5093641;28;20022;-36
2023/09/16 07:05:47;;;;;;;;;;;;;;;16.27;100.00;101362.25;5094520;28;20605;-36
2023/09/16 07:08:14;;;;;;;14.13;12.30;;;;;;;16.29;100.00;101360.91;5093860;28;19908;-36
2023/09/16 07:10:39;;;;;;;13.25;11.57;;;;;;;16.37;100.00;101359.63;5094064;28;20028;-36
2023/09/16 07:13:04;;;;;;;;;;;;;;;16.46;100.00;101349.91;5093993;28;20464;-36
2023/09/16 07:15:30;;;;;;;14.35;10.85;;;;;;;16.51;100.00;101357.31;5093708;28;20012;-36
2023/09/16 07:17:55;;;;;;;;;;;;;;;16.61;100.00;101352.78;5094356;28;20024;-36
2023/09/16 07:20:20;;;;;;;11.38;10.27;;;;;;;16.69;100.00;101348.78;5097191;28;20010;-36
2023/09/16 07:22:46;;;;;;;;;;;;;;;16.82;100.00;101350.25;5098287;28;20462;-36
2023/09/16 07:25:11;;;;;;;11.07;9.90;;;;;;;16.79;100.00;101337.13;5097243;28;20002;-36
2023/09/16 07:27:36;;;;;;;;;;;;;;;16.93;100.00;101350.09;5097890;28;20031;-36
2023/09/16 07:30:02;;;;;;;10.50;9.50;;;;;;;16.97;100.00;101358.56;5097106;28;19912;-37
2023/09/16 07:32:27;;;;;;;;;;;;;;;17.06;100.00;101348.00;5097851;28;20242;-37
2023/09/16 07:34:53;;;;;;;11.68;10.27;;;;;;;17.05;100.00;101347.19;5097452;28;19908;-37
2023/09/16 07:37:19;;;;;;;;;;;;;;;17.16;100.00;101351.63;5098521;28;20023;-37
2023/09/16 07:39:46;;;;;;;11.65;9.40;;;;;;;17.15;100.00;101355.44;5097668;28;20244;-37
2023/09/16 07:42:11;;;;;;;10.75;9.63;;;;;;;17.19;100.00;101350.28;5097945;28;20036;-37
2023/09/16 07:44:36;;;;;;;;;;;;;;;17.30;100.00;101354.72;5097750;28;20023;-37
2023/09/16 07:47:02;;;;;;;11.63;9.70;;;;;;;17.30;100.00;101353.91;5097299;28;20000;-37
2023/09/16 07:49:27;;;;;;;;;;;;;;;17.41;100.00;101372.00;5097728;28;20024;-37
2023/09/16 07:51:52;;;;;;;9.67;8.63;;;;;;;17.44;100.00;101366.03;5097752;28;20236;-34
2023/09/16 07:54:18;;;;;;;;;;;;;;;17.50;100.00;101362.22;5097649;28;20353;-37
2023/09/16 07:56:43;;;;;;;10.27;9.27;;;;;;;17.53;100.00;101364.44;5096843;28;19908;-37
2023/09/16 07:59:08;;;;;;;;;;;;;;;17.60;100.00;101366.94;5096775;28;20305;-37
2023/09/16 08:01:34;;;;;;;10.02;9.13;;;;;;;17.66;100.00;101361.22;5097058;28;19966;-37
2023/09/16 08:03:59;;;;;;;;;;;;;;;17.73;100.00;101367.31;5097092;28;20103;-35
2023/09/16 08:06:26;;;;;;;10.80;9.67;;;;;;;17.75;100.00;101367.03;5096397;28;19908;-36
2023/09/16 08:08:51;;;;;;;9.88;8.88;;;;;;;17.80;100.00;101368.97;5096917;28;20351;-36
2023/09/16 08:11:17;;;;;;;;;;;;;;;17.87;100.00;101364.09;5097803;28;20341;-36
2023/09/16 08:13:42;;;;;;;10.20;8.93;;;;;;;17.95;100.00;101360.81;5096488;28;19943;-36
2023/09/16 08:16:07;;;;;;;10.02;8.95;;;;;;;18.05;100.00;101369.06;5096458;28;20091;-36
2023/09/16 08:18:33;;;;;;;;;;;;;;;18.13;100.00;101365.00;5096817;28;20020;-36
2023/09/16 08:21:01;;;;;;;13.60;9.02;;;;;;;18.17;100.00;101368.84;5096608;28;19961;-36
2023/09/16 08:23:26;;;;;;;9.25;8.35;;;;;;;18.21;100.00;101365.31;5096565;28;20032;-37
2023/09/16 08:25:51;;;;;;;;;;;;;;;18.32;100.00;101370.81;5097091;28;20351;-36
2023/09/16 08:28:17;;;;;;;9.82;8.82;;;;;;;18.46;100.00;101366.47;5096290;28;19960;-36
2023/09/16 08:30:42;;;;;;;;;;;;;;;18.55;100.00;101367.59;5095924;28;20020;-36
2023/09/16 08:33:09;;;;;;;10.63;9.63;;;;;;;18.64;100.00;101373.31;5096724;28;19908;-36
2023/09/16 08:35:34;;;;;;;9.23;8.32;;;;;;;18.83;100.00;101373.66;5095693;28;20514;-36
2023/09/16 08:38:01;;;;;;;;;;;;;;;18.99;100.00;101378.88;5096428;28;20020;-36
2023/09/16 08:40:29;;;;;;;10.23;9.23;;;;;;;18.98;100.00;101359.94;5111610;28;19908;-37
2023/09/16 08:43:18;;;;;;;10.52;8.93;;;;;;;19.14;100.00;101375.31;5096856;28;20028;-36
2023/09/16 08:45:47;;;;;;;12.60;9.55;;;;;;;19.25;100.00;101382.41;5095659;28;20020;-37
2023/09/16 08:48:15;;;;;;;10.00;8.30;;;;;;;19.31;100.00;101377.75;5096147;28;20364;-36
2023/09/16 08:50:42;;;;;;;10.13;8.50;;;;;;;19.35;100.00;101384.31;5095602;28;20108;-36
2023/09/16 08:53:11;;;;;;;8.77;7.88;;;;;;;19.41;100.00;101383.22;5096313;28;20027;-36
2023/09/16 08:55:36;;;;;;;9.38;8.38;;;;;;;19.49;100.00;101384.56;5095343;28;20448;-36
2023/09/16 08:58:07;;;;;;;;;;;;;;;19.59;100.00;101373.56;5096331;28;20036;-36
2023/09/16 09:00:33;;;;;;;9.23;8.27;;;;;;;19.60;100.00;101379.91;5095664;28;20024;-36
2023/09/16 09:02:58;;;;;;;;;;;;;;;19.77;100.00;101384.00;5096979;28;20051;-36
2023/09/16 09:05:25;;;;;;;9.00;7.75;;;;;;;19.84;100.00;101380.94;5095374;28;19915;-36
2023/09/16 09:07:51;;;;;;;9.40;8.50;;;;;;;19.93;100.00;101383.94;5095912;28;20024;-36
2023/09/16 09:10:16;;;;;;;9.77;8.77;;;;;;;20.06;100.00;101386.06;5095493;28;20379;-36
2023/09/16 09:12:43;;;;;;;8.98;8.07;;;;;;;20.15;100.00;101381.63;5095956;28;20032;-36
2023/09/16 09:15:13;;;;;;;9.27;8.15;;;;;;;20.21;100.00;101374.19;5095562;28;20518;-36
2023/09/16 09:17:42;;;;;;;8.75;7.85;;;;;;;20.27;100.00;101384.88;5095247;28;20399;-36
2023/09/16 09:20:12;;;;;;;8.25;7.45;;;;;;;20.35;100.00;101380.72;5095334;28;20104;-36
2023/09/16 09:22:39;;;;;;;9.43;7.68;;;;;;;20.46;100.00;101381.47;5095505;28;20020;-36
2023/09/16 09:25:06;;;;;;;8.40;7.60;;;;;;;20.50;100.00;101388.06;5095743;28;20016;-36
2023/09/16 09:27:31;;;;;;;8.50;7.53;;;;;;;20.54;100.00;101389.94;5095444;28;20046;-36
2023/09/16 09:29:57;;;;;;;10.13;7.88;;;;;;;20.66;100.00;101397.84;5095637;28;20024;-36
2023/09/16 09:32:22;;;;;;;8.95;8.05;;;;;;;20.71;100.00;101392.31;5095318;28;20028;-36
2023/09/16 09:34:48;;;;;;;8.00;7.20;;;;;;;20.93;100.00;101399.28;5095521;28;20024;-36
2023/09/16 09:37:16;;;;;;;7.90;7.15;;;;;;;21.07;100.00;101389.28;5095206;28;20031;-36
2023/09/16 09:39:42;;;;;;;8.00;7.20;;;;;;;21.18;100.00;101390.84;5094883;28;20096;-36
2023/09/16 09:42:08;;;;;;;7.13;6.32;;;;;;;21.23;100.00;101395.47;5094302;28;20027;-36
2023/09/16 09:44:34;;;;;;;8.70;7.47;;;;;;;21.26;100.00;101395.69;5095089;28;20367;-36
2023/09/16 09:47:00;;;;;;;7.97;6.78;;;;;;;21.30;100.00;101391.28;5094814;28;20028;-36
2023/09/16 09:49:26;;;;;;;7.57;6.70;;;;;;;21.40;100.00;101406.88;5094761;28;20028;-36
2023/09/16 09:51:51;;;;;;;8.63;7.68;;;;;;;21.46;98.75;101405.72;5094901;28;20035;-36
2023/09/16 09:54:17;;;;;;;7.82;6.68;;;;;;;21.39;98.28;101408.00;5094973;28;20086;-36
2023/09/16 09:56:43;;;;;;;8.38;6.68;;;;;;;21.40;96.97;101400.56;5094875;28;20059;-36
2023/09/16 09:59:09;;;;;;;8.27;6.97;;;;;;;21.41;95.14;101400.25;5094820;28;20131;-36
2023/09/16 10:01:35;;;;;;;8.10;6.80;;;;;;;21.40;98.05;101403.31;5094620;28;20030;-36
2023/09/16 10:04:03;;;;;;;7.40;6.60;;;;;;;21.38;98.50;101403.63;5094714;28;20103;-36
2023/09/16 10:06:29;;;;;;;8.20;6.95;;;;;;;21.42;99.81;101399.16;5095000;28;20173;-37
2023/09/16 10:08:54;;;;;;;9.00;8.05;;;;;;;21.47;99.92;101395.53;5094432;28;20406;-36
2023/09/16 10:11:21;;;;;;;11.13;8.07;;;;;;;21.42;100.00;101390.91;5094391;28;20024;-37
2023/09/16 10:13:48;;;;;;;8.48;7.68;;;;;;;21.52;99.63;101399.06;5094843;28;20024;-37
2023/09/16 10:16:13;;;;;;;9.73;7.63;;;;;;;21.55;98.56;101392.16;5094184;28;20027;-37
2023/09/16 10:18:39;;;;;;;8.38;7.45;;;;;;;21.58;100.00;101386.91;5095000;28;20023;-37
2023/09/16 10:21:07;;;;;;;9.18;7.93;;;;;;;21.67;99.39;101381.56;5094448;28;20457;-37
2023/09/16 10:23:33;;;;;;;9.18;7.35;;;;;;;21.83;100.00;101396.78;5094429;28;20024;-37
2023/09/16 10:25:58;;;;;;;8.48;7.68;;;;;;;22.04;98.54;101399.28;5094092;28;20020;-37
2023/09/16 10:28:25;;;;;;;8.55;7.60;;;;;;;22.10;98.09;101384.34;5094654;28;20107;-37
2023/09/16 10:30:51;;;;;;;8.45;7.57;;;;;;;22.34;95.62;101387.06;5094005;28;20020;-36
2023/09/16 10:33:20;;;;;;;8.55;7.35;;;;;;;22.49;96.81;101388.78;5093208;28;20032;-37
2023/09/16 10:35:46;;;;;;;9.18;7.35;;;;;;;22.55;92.95;101380.19;5094247;28;20016;-36
2023/09/16 10:38:12;;;;;;;8.20;6.97;;;;;;;22.63;92.09;101385.00;5093235;28;20024;-37
2023/09/16 10:40:39;;;;;;;7.38;6.60;;;;;;;22.49;88.13;101386.84;5093527;28;20399;-36
2023/09/16 10:43:05;;;;;;;6.72;6.13;;;;;;;22.57;91.75;101382.63;5093657;28;20024;-36
2023/09/16 10:45:31;;;;;;;7.03;5.93;;;;;;;22.61;91.91;101367.13;5093570;28;20448;-36
2023/09/16 10:48:01;;;;;;;7.55;6.10;;;;;;;22.81;92.03;101382.53;5093896;28;20024;-36
2023/09/16 10:50:29;;;;;;;7.88;7.07;;;;;;;22.74;92.41;101371.91;5093321;28;20103;-36
2023/09/16 10:53:02;;;;;;;7.78;6.63;;;;;;;22.83;92.46;101374.75;5093377;28;20020;-36
2023/09/16 10:55:51;;;;;;;8.55;7.57;;;;;;;22.95;93.39;101375.16;5093443;28;20375;-37
2023/09/16 10:58:31;;;;;;;7.65;6.75;;;;;;;23.05;92.09;101374.16;5093786;28;20356;-36
2023/09/16 11:00:58;;;;;;;9.55;7.50;;;;;;;23.15;91.21;101367.66;5093314;28;20028;-36
2023/09/16 11:03:30;;;;;;;7.45;6.72;;;;;;;23.21;91.66;101361.72;5094154;28;20024;-36
2023/09/16 11:06:02;;;;;;;7.60;6.85;;;;;;;23.42;91.61;101355.84;5094417;28;20047;-36
2023/09/16 11:08:28;;;;;;;8.75;7.00;;;;;;;23.45;87.87;101360.75;5093549;28;20024;-37
2023/09/16 11:10:55;;;;;;;7.25;6.00;;;;;;;23.53;88.78;101351.78;5093743;28;20034;-36
2023/09/16 11:13:26;;;;;;;7.28;6.03;;;;;;;23.64;86.50;101347.72;5093216;28;20024;-37
2023/09/16 11:15:52;;;;;;;6.90;6.30;;;;;;;23.70;85.37;101349.22;5093579;28;20024;-36
2023/09/16 11:18:18;;;;;;;6.68;6.05;;;;;;;23.72;85.87;101352.53;5094026;28;20329;-37
2023/09/16 11:20:45;;;;;;;6.90;6.07;;;;;;;23.69;85.71;101339.31;5093467;28;20027;-37
2023/09/16 11:23:12;;;;;;;7.47;6.50;;;;;;;23.80;85.01;101343.50;5093848;28;20099;-37
2023/09/16 11:25:39;;;;;;;7.50;6.13;;;;;;;23.86;85.62;101350.56;5093722;28;20099;-37
2023/09/16 11:28:22;;;;;;;7.43;6.72;;;;;;;23.82;84.11;101337.69;5093747;28;20027;-37